Time;durP1;ratioP1;P1;durP2;ratioP2;P2;SDS_P1;SDS_P2;PMS_P1;PMS_P2;Temp;Humidity;BMP_temperature;BMP_pressure;BME280_temperature;BME280_humidity;BME280_pressure;Samples;Min_cycle;Max_cycle;Signal;HPM_P1;HPM_P2
2022/07/06 00:01:58;;;;;;;3.67;3.37;;;20.20;71.40;;;21.01;nan;101251.56;4969967;28;20766;-69
2022/07/06 00:04:25;;;;;;;3.60;3.30;;;20.20;71.70;;;21.01;nan;101243.63;4980173;28;20689;-68
2022/07/06 00:06:52;;;;;;;3.57;3.37;;;20.30;72.00;;;20.98;nan;101245.75;4990877;28;20976;-69
2022/07/06 00:09:19;;;;;;;3.80;3.53;;;20.20;72.40;;;20.94;nan;101250.56;4989820;28;20649;-69
2022/07/06 00:11:46;;;;;;;3.70;3.40;;;20.20;73.10;;;20.96;nan;101258.34;4991856;28;20677;-69
2022/07/06 00:14:13;;;;;;;3.57;3.27;;;20.20;73.30;;;20.86;nan;101258.50;4986523;28;20673;-68
2022/07/06 00:16:40;;;;;;;4.90;4.50;;;20.10;73.70;;;20.85;nan;101264.78;4971882;28;20631;-69
2022/07/06 00:19:07;;;;;;;3.87;3.50;;;20.00;74.20;;;20.77;nan;101260.28;4979260;28;20644;-68
2022/07/06 00:21:34;;;;;;;3.70;3.40;;;20.00;74.70;;;20.82;nan;101275.72;4990561;28;20692;-69
2022/07/06 00:24:01;;;;;;;4.13;3.80;;;20.00;74.90;;;20.73;nan;101268.72;4973533;28;20724;-68
2022/07/06 00:26:28;;;;;;;5.10;4.07;;;20.00;75.50;;;20.80;nan;101269.75;4992128;28;20626;-71
2022/07/06 00:28:55;;;;;;;4.10;3.80;;;20.00;75.70;;;20.77;nan;101273.56;4991785;28;20626;-68
2022/07/06 00:31:22;;;;;;;4.10;3.77;;;20.00;76.10;;;20.79;nan;101273.38;4988111;28;20948;-68
2022/07/06 00:33:49;;;;;;;3.97;3.63;;;20.00;76.20;;;20.76;nan;101273.72;4976059;28;20669;-69
2022/07/06 00:36:16;;;;;;;4.00;3.60;;;20.00;76.70;;;20.75;nan;101277.34;4974215;28;20630;-68
2022/07/06 00:38:43;;;;;;;4.40;4.00;;;19.90;77.00;;;20.74;nan;101275.72;4990525;28;20622;-67
2022/07/06 00:41:12;;;;;;;4.20;3.90;;;19.90;77.40;;;20.65;nan;101272.19;4989608;28;20658;-68
2022/07/06 00:43:55;;;;;;;4.50;4.10;;;19.90;77.90;;;20.57;nan;101279.28;4990524;28;20638;-68
2022/07/06 00:46:31;;;;;;;5.13;3.80;;;19.80;78.40;;;20.56;nan;101277.59;4990950;28;20610;-68
2022/07/06 00:48:58;;;;;;;3.97;3.67;;;19.80;78.80;;;20.47;nan;101278.56;4975134;28;20639;-68
2022/07/06 00:51:32;;;;;;;3.83;3.43;;;19.80;79.30;;;20.48;nan;101274.91;4966807;28;21008;-68
2022/07/06 00:54:03;;;;;;;3.77;3.40;;;19.70;79.70;;;20.47;nan;101278.56;4969474;28;20663;-67
2022/07/06 00:56:32;;;;;;;3.80;3.50;;;19.80;80.40;;;20.42;nan;101283.50;4990526;28;20634;-68
2022/07/06 00:59:02;;;;;;;4.57;4.07;;;19.60;80.30;;;20.36;nan;101284.16;4979619;28;20651;-71
2022/07/06 01:01:29;;;;;;;4.23;3.93;;;19.60;80.70;;;20.37;nan;101280.50;4977807;28;20638;-70
2022/07/06 01:03:56;;;;;;;4.53;3.87;;;19.50;81.10;;;20.26;nan;101271.00;4984790;28;20663;-69
2022/07/06 01:06:23;;;;;;;4.33;3.50;;;19.60;81.70;;;20.23;nan;101283.75;4970201;28;21196;-69
2022/07/06 01:08:50;;;;;;;3.40;3.20;;;19.50;82.10;;;20.22;nan;101274.09;4969570;28;20634;-70
2022/07/06 01:11:19;;;;;;;3.73;3.53;;;19.50;82.30;;;20.29;nan;101280.47;4970404;28;20635;-69
2022/07/06 01:13:48;;;;;;;3.50;3.30;;;19.50;82.50;;;20.19;nan;101274.41;4972896;28;20653;-69
2022/07/06 01:16:15;;;;;;;4.03;3.53;;;19.40;83.10;;;20.19;nan;101275.22;4974573;28;20631;-68
2022/07/06 01:18:42;;;;;;;4.07;3.77;;;19.40;83.40;;;20.26;nan;101278.09;4973448;28;20669;-69
2022/07/06 01:21:12;;;;;;;4.43;3.40;;;19.50;83.50;;;20.17;nan;101282.50;4967853;28;20634;-68
2022/07/06 01:23:42;;;;;;;3.03;2.83;;;19.40;83.90;;;20.13;nan;101283.78;4984482;28;20670;-68
2022/07/06 01:26:14;;;;;;;3.50;3.20;;;19.40;84.40;;;20.13;nan;101279.34;4982186;28;20658;-68
2022/07/06 01:28:42;;;;;;;3.33;3.13;;;19.30;84.70;;;20.12;nan;101276.84;4974437;28;20631;-71
2022/07/06 01:31:21;;;;;;;3.37;3.17;;;19.40;84.80;;;20.10;nan;101276.97;4965922;28;21238;-69
2022/07/06 01:33:54;;;;;;;3.20;3.00;;;19.30;85.20;;;20.05;nan;101275.81;4975186;28;20681;-68
2022/07/06 01:36:22;;;;;;;3.10;2.90;;;19.30;85.40;;;20.05;nan;101270.50;4993609;28;20607;-69
2022/07/06 01:38:52;;;;;;;4.10;3.10;;;19.30;85.80;;;20.07;nan;101271.19;4991141;28;20631;-66
2022/07/06 01:41:20;;;;;;;3.30;3.00;;;19.30;85.90;;;19.97;nan;101266.00;4993530;28;20626;-68
2022/07/06 01:43:47;;;;;;;3.30;3.00;;;19.20;86.40;;;19.95;nan;101269.78;4984596;28;21246;-68
2022/07/06 01:46:15;;;;;;;2.50;2.40;;;19.20;86.80;;;19.93;nan;101272.56;4975359;28;21257;-69
2022/07/06 01:48:42;;;;;;;3.83;2.57;;;19.20;87.00;;;19.90;nan;101278.19;4980682;28;20635;-69
2022/07/06 01:51:11;;;;;;;3.00;2.80;;;19.10;87.40;;;19.85;nan;101271.69;4993491;28;20630;-65
2022/07/06 01:53:38;;;;;;;2.80;2.67;;;19.10;87.70;;;19.90;nan;101270.25;4992146;28;20658;-70
2022/07/06 01:56:06;;;;;;;2.80;2.40;;;19.10;87.80;;;19.86;nan;101271.53;4992167;28;20622;-68
2022/07/06 01:58:34;;;;;;;3.17;2.87;;;19.10;87.60;;;19.94;nan;101268.94;4982473;28;21398;-69
2022/07/06 02:01:10;;;;;;;2.50;2.30;;;19.20;87.60;;;19.89;nan;101268.56;4972312;28;20638;-69
2022/07/06 02:03:38;;;;;;;4.00;2.40;;;19.10;87.80;;;19.91;nan;101273.72;4991188;28;21300;-69
2022/07/06 02:06:06;;;;;;;2.60;2.40;;;19.10;88.10;;;19.88;nan;101271.38;4992102;28;21315;-68
2022/07/06 02:08:35;;;;;;;2.43;2.33;;;19.10;88.20;;;19.78;nan;101276.75;4992134;28;20618;-68
2022/07/06 02:11:04;;;;;;;2.80;2.60;;;19.00;88.60;;;19.76;nan;101272.63;4993264;28;20637;-68
2022/07/06 02:13:31;;;;;;;2.57;2.37;;;19.00;89.00;;;19.75;nan;101274.44;4993141;28;20681;-71
2022/07/06 02:15:58;;;;;;;2.70;2.57;;;19.00;89.10;;;19.72;nan;101279.22;4973107;28;21018;-67
2022/07/06 02:18:24;;;;;;;2.27;2.17;;;18.90;89.20;;;19.71;nan;101273.06;4972836;28;21198;-70
2022/07/06 02:20:52;;;;;;;2.50;2.30;;;19.00;89.60;;;19.67;nan;101282.31;4972558;28;20948;-68
2022/07/06 02:23:19;;;;;;;2.70;2.37;;;18.90;89.70;;;19.69;nan;101287.44;4970765;28;21330;-69
2022/07/06 02:25:46;;;;;;;2.50;2.33;;;18.90;89.70;;;19.70;nan;101289.94;4980156;28;21234;-70
2022/07/06 02:28:13;;;;;;;2.23;2.13;;;18.90;89.80;;;19.72;nan;101292.44;4993093;28;20610;-68
2022/07/06 02:30:40;;;;;;;2.23;2.03;;;18.90;89.90;;;19.63;nan;101296.00;4992793;28;20629;-68
2022/07/06 02:33:07;;;;;;;2.50;2.30;;;18.90;90.00;;;19.63;nan;101293.34;4975380;28;20642;-68
2022/07/06 02:35:34;;;;;;;2.80;2.30;;;18.90;90.10;;;19.55;nan;101291.47;4972851;28;20639;-68
2022/07/06 02:38:01;;;;;;;2.33;2.23;;;18.80;90.20;;;19.47;nan;101288.75;4972635;28;20690;-67
2022/07/06 02:40:28;;;;;;;2.40;2.27;;;18.80;90.40;;;19.43;nan;101292.69;4984237;28;21015;-69
2022/07/06 02:42:55;;;;;;;2.37;2.23;;;18.70;90.40;;;19.34;nan;101291.78;4991144;28;20684;-69
2022/07/06 02:45:22;;;;;;;2.37;2.27;;;18.60;90.60;;;19.33;nan;101279.50;4991124;28;21057;-69
2022/07/06 02:47:50;;;;;;;2.80;2.60;;;18.60;90.80;;;19.22;nan;101287.66;4992692;28;20626;-68
2022/07/06 02:50:17;;;;;;;3.93;2.90;;;18.60;90.90;;;19.17;nan;101286.44;4954265;28;20994;-69
2022/07/06 02:52:44;;;;;;;2.83;2.47;;;18.50;91.50;;;19.12;nan;101286.06;4954956;28;21005;-69
2022/07/06 02:55:11;;;;;;;2.70;2.50;;;18.40;91.20;;;19.06;nan;101289.31;4955374;28;20663;-69
2022/07/06 02:57:38;;;;;;;2.90;2.70;;;18.30;91.60;;;18.98;nan;101294.47;4955104;28;20627;-68
2022/07/06 03:00:07;;;;;;;2.33;2.10;;;18.30;91.90;;;19.02;nan;101294.03;4968424;28;20687;-71
2022/07/06 03:02:34;;;;;;;2.83;2.70;;;18.30;91.90;;;18.98;nan;101302.41;4973392;28;20646;-70
2022/07/06 03:05:01;;;;;;;2.37;2.27;;;18.30;92.00;;;19.03;nan;101308.09;4972084;28;20721;-71
2022/07/06 03:07:28;;;;;;;2.27;2.17;;;18.40;91.90;;;18.91;nan;101312.75;4973788;28;20619;-69
2022/07/06 03:09:55;;;;;;;3.10;2.43;;;18.30;92.20;;;18.90;nan;101320.84;4973632;28;20685;-68
2022/07/06 03:12:22;;;;;;;2.70;2.50;;;18.30;92.20;;;18.89;nan;101308.63;4983100;28;20642;-68
2022/07/06 03:14:49;;;;;;;2.70;2.50;;;18.20;92.20;;;18.83;nan;101317.09;4991482;28;21034;-68
2022/07/06 03:17:16;;;;;;;2.20;2.10;;;18.20;92.30;;;18.88;nan;101315.72;4980708;28;21207;-69
2022/07/06 03:19:43;;;;;;;2.70;2.50;;;18.20;92.50;;;18.89;nan;101324.47;4966045;28;20706;-68
2022/07/06 03:22:10;;;;;;;3.10;2.83;;;18.20;92.50;;;18.85;nan;101328.38;4970246;28;21191;-69
2022/07/06 03:24:37;;;;;;;2.60;2.40;;;18.20;92.60;;;18.75;nan;101327.59;4971662;28;20674;-68
2022/07/06 03:27:05;;;;;;;2.13;2.03;;;18.10;92.80;;;18.69;nan;101329.03;4972273;28;20758;-68
2022/07/06 03:29:32;;;;;;;2.50;2.40;;;18.10;93.10;;;18.59;nan;101329.03;4971678;28;20639;-68
2022/07/06 03:31:59;;;;;;;2.97;2.70;;;18.00;93.50;;;18.55;nan;101327.66;4972249;28;20627;-69
2022/07/06 03:34:26;;;;;;;3.50;2.67;;;17.90;93.80;;;18.58;nan;101327.41;4978817;28;20685;-68
2022/07/06 03:36:53;;;;;;;3.10;2.30;;;17.90;94.00;;;18.54;nan;101325.19;4990975;28;20699;-69
2022/07/06 03:39:20;;;;;;;3.27;2.37;;;17.90;94.30;;;18.54;nan;101333.94;4990282;28;20630;-69
2022/07/06 03:41:46;;;;;;;2.50;2.27;;;17.90;94.50;;;18.60;nan;101329.88;4991377;28;20634;-68
2022/07/06 03:44:13;;;;;;;3.30;2.17;;;18.00;94.60;;;18.58;nan;101334.47;4989890;28;20662;-68
2022/07/06 03:46:40;;;;;;;2.40;2.20;;;17.90;94.90;;;18.59;nan;101329.03;4989551;28;20662;-69
2022/07/06 03:49:07;;;;;;;2.97;1.80;;;17.90;95.10;;;18.65;nan;101335.56;4979780;28;20695;-69
2022/07/06 03:51:34;;;;;;;2.20;2.10;;;18.00;95.10;;;18.64;nan;101335.69;4970363;28;20633;-70
2022/07/06 03:54:01;;;;;;;3.43;2.03;;;18.00;95.20;;;18.75;nan;101338.16;4972094;28;20659;-68
2022/07/06 03:56:28;;;;;;;2.80;2.60;;;18.00;95.10;;;18.74;nan;101347.09;4972876;28;20630;-68
2022/07/06 03:59:02;;;;;;;2.10;2.00;;;18.10;95.10;;;18.87;nan;101347.59;4980156;28;20638;-68
2022/07/06 04:01:30;;;;;;;1.90;1.80;;;18.10;95.00;;;18.88;nan;101346.59;4989674;28;21188;-69
2022/07/06 04:03:57;;;;;;;7.43;2.37;;;18.20;95.00;;;19.00;nan;101340.13;4990923;28;20660;-68
2022/07/06 04:06:25;;;;;;;1.90;1.80;;;18.30;94.70;;;18.95;nan;101340.56;4984096;28;20675;-67
2022/07/06 04:08:52;;;;;;;2.00;1.90;;;18.30;94.70;;;19.01;nan;101341.81;4970775;28;21265;-68
2022/07/06 04:11:19;;;;;;;2.30;2.20;;;18.30;94.60;;;19.09;nan;101347.19;4971345;28;21230;-68
2022/07/06 04:13:46;;;;;;;2.03;1.93;;;18.40;94.70;;;19.22;nan;101340.56;4972510;28;20635;-68
2022/07/06 04:16:13;;;;;;;4.90;2.20;;;18.60;94.20;;;19.35;nan;101348.19;4991689;28;21186;-69
2022/07/06 04:18:40;;;;;;;2.17;2.00;;;18.80;93.90;;;19.47;nan;101360.22;4983246;28;21028;-68
2022/07/06 04:21:07;;;;;;;2.47;2.27;;;18.90;93.60;;;19.60;nan;101355.38;4965719;28;21222;-69
2022/07/06 04:23:34;;;;;;;2.90;2.37;;;19.00;93.20;;;19.73;nan;101358.50;4962594;28;20720;-70
2022/07/06 04:26:02;;;;;;;1.70;1.70;;;19.10;93.00;;;19.84;nan;101360.91;4960379;28;20723;-69
2022/07/06 04:28:29;;;;;;;2.70;2.20;;;19.20;92.50;;;19.89;nan;101360.47;4970337;28;20991;-70
2022/07/06 04:30:56;;;;;;;2.80;2.53;;;19.30;92.40;;;19.90;nan;101365.59;4969344;28;21059;-69
2022/07/06 04:33:23;;;;;;;2.33;2.17;;;19.30;92.50;;;19.96;nan;101367.63;4984223;28;20681;-67
2022/07/06 04:35:50;;;;;;;4.00;2.23;;;19.30;92.30;;;20.10;nan;101363.59;4989140;28;20661;-69
2022/07/06 04:38:17;;;;;;;2.17;1.93;;;19.50;92.00;;;20.31;nan;101363.28;4988961;28;20634;-69
2022/07/06 04:40:46;;;;;;;3.93;2.40;;;19.70;91.70;;;20.44;nan;101366.34;4972748;28;20697;-69
2022/07/06 04:43:13;;;;;;;4.07;2.37;;;19.90;90.90;;;20.47;nan;101373.97;4970030;28;20674;-69
2022/07/06 04:45:40;;;;;;;2.83;2.33;;;19.90;90.70;;;20.50;nan;101371.03;4971187;28;20667;-69
2022/07/06 04:48:10;;;;;;;8.93;2.93;;;19.90;90.70;;;20.46;nan;101372.34;4982406;28;21213;-67
2022/07/06 04:50:37;;;;;;;8.03;2.50;;;19.90;90.80;;;20.40;nan;101380.91;4992819;28;21031;-70
2022/07/06 04:53:06;;;;;;;5.37;2.60;;;19.80;90.70;;;20.60;nan;101379.69;4993881;28;20625;-72
2022/07/06 04:55:33;;;;;;;3.77;2.37;;;20.00;90.70;;;20.74;nan;101382.59;4994057;28;20973;-69
2022/07/06 04:58:00;;;;;;;4.07;2.47;;;20.20;90.40;;;20.94;nan;101380.53;4993985;28;20619;-66
2022/07/06 05:00:27;;;;;;;4.93;2.40;;;20.40;89.80;;;20.94;nan;101377.06;4983125;28;20646;-69
2022/07/06 05:02:54;;;;;;;2.87;2.67;;;20.40;89.10;;;21.00;nan;101382.56;4987857;28;20665;-72
2022/07/06 05:05:21;;;;;;;3.53;2.77;;;20.50;88.20;;;20.94;nan;101380.53;4973258;28;20673;-69
2022/07/06 05:07:48;;;;;;;3.87;2.30;;;20.40;88.10;;;20.93;nan;101381.56;4957308;28;20623;-69
2022/07/06 05:10:15;;;;;;;2.77;2.57;;;20.50;88.00;;;21.09;nan;101392.25;4972845;28;20650;-70
2022/07/06 05:12:42;;;;;;;5.30;2.67;;;20.60;87.60;;;21.14;nan;101387.31;4974720;28;21183;-70
2022/07/06 05:15:10;;;;;;;3.50;2.70;;;20.70;87.40;;;21.22;nan;101379.38;4975784;28;20659;-69
2022/07/06 05:17:37;;;;;;;2.70;2.50;;;20.70;87.10;;;21.30;nan;101383.84;4973787;28;20631;-69
2022/07/06 05:20:06;;;;;;;3.80;1.90;;;20.90;87.50;;;21.64;nan;101382.78;4973493;28;20638;-68
2022/07/06 05:22:33;;;;;;;6.10;3.10;;;21.10;85.90;;;21.66;nan;101379.16;4974732;28;20631;-68
2022/07/06 05:25:00;;;;;;;3.13;2.37;;;21.20;84.90;;;21.61;nan;101390.25;4998755;23;20710;-67
2022/07/06 05:27:27;;;;;;;2.40;2.27;;;21.30;83.90;;;21.67;nan;101386.09;4973856;28;21228;-67
2022/07/06 05:29:54;;;;;;;2.47;2.27;;;21.30;83.40;;;21.64;nan;101392.56;4954098;28;21038;-68
2022/07/06 05:32:21;;;;;;;2.70;2.60;;;21.20;84.00;;;21.76;nan;101401.91;4954559;28;20624;-67
2022/07/06 05:34:51;;;;;;;2.73;2.50;;;21.30;83.50;;;21.95;nan;101408.75;4983025;28;20665;-66
2022/07/06 05:37:18;;;;;;;2.77;2.57;;;21.40;83.40;;;21.83;nan;101407.44;4984056;28;20654;-68
2022/07/06 05:39:46;;;;;;;3.00;2.50;;;21.40;82.50;;;21.93;nan;101405.44;4983009;28;20673;-68
2022/07/06 05:42:14;;;;;;;3.33;2.20;;;21.40;82.90;;;22.42;nan;101415.06;4993652;28;20630;-68
2022/07/06 05:44:41;;;;;;;2.57;2.37;;;21.90;81.70;;;22.69;nan;101412.06;4992204;28;20997;-66
2022/07/06 05:50:11;;;;;;;2.73;2.37;;;22.50;79.30;;;22.95;nan;101418.00;4955194;28;20636;-68
2022/07/06 05:52:40;;;;;;;2.70;2.53;;;22.40;79.20;;;23.00;nan;101415.63;4972886;28;21210;-67
2022/07/06 05:55:08;;;;;;;3.00;2.50;;;22.50;78.70;;;23.20;nan;101405.41;4974503;28;21327;-67
2022/07/06 05:57:36;;;;;;;5.03;3.03;;;22.70;77.90;;;23.15;nan;101411.25;4991487;28;20638;-68
2022/07/06 06:00:05;;;;;;;3.13;2.37;;;22.80;77.50;;;23.25;nan;101404.88;4971307;28;21199;-67
2022/07/06 06:02:42;;;;;;;2.60;2.40;;;22.70;77.50;;;23.26;nan;101401.19;4959090;28;20627;-68
2022/07/06 06:05:11;;;;;;;3.33;2.60;;;22.90;76.90;;;23.41;nan;101407.47;4971930;28;20702;-68
2022/07/06 06:07:39;;;;;;;6.70;2.80;;;22.90;76.80;;;23.69;nan;101406.00;4968964;28;20624;-67
2022/07/06 06:10:11;;;;;;;4.60;3.10;;;23.20;76.40;;;24.19;nan;101408.16;4968783;28;20639;-68
2022/07/06 06:12:40;;;;;;;2.40;2.20;;;23.70;74.90;;;24.66;nan;101424.69;4966916;28;21180;-68
2022/07/06 06:15:08;;;;;;;3.70;2.43;;;24.20;73.40;;;25.27;nan;101418.19;4974129;28;20669;-67
2022/07/06 06:17:36;;;;;;;3.47;3.17;;;24.80;72.10;;;25.19;nan;101419.09;4990475;28;20637;-67
2022/07/06 06:20:06;;;;;;;4.70;3.20;;;24.90;70.50;;;24.75;nan;101410.28;4975586;28;20649;-68
2022/07/06 06:22:56;;;;;;;1.93;1.83;;;24.50;70.50;;;25.03;nan;101423.81;4975603;28;20642;-68
2022/07/06 06:25:39;;;;;;;2.10;2.00;;;24.60;70.70;;;25.57;nan;101419.81;4990747;28;20669;-68
2022/07/06 06:28:09;;;;;;;4.37;2.60;;;25.10;69.50;;;26.13;nan;101418.13;4975378;28;20641;-68
2022/07/06 06:30:37;;;;;;;2.97;2.63;;;25.80;68.00;;;26.92;nan;101424.91;4990599;28;20626;-68
2022/07/06 06:33:19;;;;;;;3.50;2.80;;;26.60;65.90;;;27.36;nan;101432.56;4990665;28;20997;-69
2022/07/06 06:35:49;;;;;;;2.90;2.70;;;27.00;64.70;;;27.77;nan;101421.78;4987053;28;20667;-68
2022/07/06 06:38:18;;;;;;;2.77;2.57;;;27.30;63.40;;;28.60;nan;101429.28;4972334;28;20631;-67
2022/07/06 06:40:45;;;;;;;4.07;3.03;;;28.10;61.60;;;29.18;nan;101435.59;4974002;28;20615;-68
2022/07/06 06:43:13;;;;;;;3.10;2.73;;;28.70;59.80;;;29.89;nan;101431.72;4992074;28;20617;-68
2022/07/06 06:45:40;;;;;;;3.00;2.80;;;29.50;58.50;;;30.46;nan;101441.44;4990538;28;20669;-70
2022/07/06 06:48:07;;;;;;;2.47;2.30;;;30.10;57.60;;;30.63;nan;101437.94;4988746;28;20626;-68
2022/07/06 06:50:40;;;;;;;1.80;1.70;;;30.20;56.00;;;31.11;nan;101445.34;4966454;28;20657;-68
2022/07/06 06:53:07;;;;;;;4.23;3.00;;;30.80;54.40;;;31.73;nan;101444.16;4973640;28;21190;-68
2022/07/06 06:55:34;;;;;;;4.37;2.83;;;31.20;54.00;;;32.16;nan;101442.06;4972821;28;20655;-68
2022/07/06 06:58:01;;;;;;;4.27;3.00;;;31.60;53.10;;;32.29;nan;101443.72;4972436;28;20626;-69
2022/07/06 07:00:28;;;;;;;9.33;3.00;;;31.80;52.00;;;31.86;nan;101444.78;4991346;28;20625;-68
2022/07/06 07:02:55;;;;;;;2.20;2.00;;;31.60;51.10;;;32.36;nan;101441.72;4970700;28;21209;-69
2022/07/06 07:05:23;;;;;;;3.00;2.70;;;31.70;51.50;;;33.00;nan;101443.53;4989062;28;21207;-69
2022/07/06 07:07:50;;;;;;;2.93;2.73;;;32.50;50.20;;;32.04;nan;101431.25;4986414;28;20631;-69
2022/07/06 07:10:17;;;;;;;3.30;3.00;;;31.60;50.50;;;32.08;nan;101442.41;4989223;28;20626;-69
2022/07/06 07:12:47;;;;;;;5.87;3.77;;;31.60;50.60;;;31.99;nan;101443.78;4991811;28;20631;-69
2022/07/06 07:15:16;;;;;;;6.33;2.70;;;31.50;50.40;;;33.17;nan;101439.00;4991490;28;20658;-68
2022/07/06 07:17:43;;;;;;;3.63;3.33;;;32.60;49.30;;;33.95;nan;101445.41;4989003;28;20685;-70
2022/07/06 07:20:11;;;;;;;6.70;3.20;;;33.50;48.20;;;34.72;nan;101442.88;4972000;28;20664;-68
2022/07/06 07:22:39;;;;;;;3.00;2.80;;;34.10;47.40;;;34.81;nan;101439.50;4992274;28;21004;-68
2022/07/06 07:25:06;;;;;;;3.03;2.73;;;34.20;46.60;;;35.62;nan;101440.50;4990168;28;20662;-69
2022/07/06 07:27:34;;;;;;;5.03;2.63;;;34.90;46.00;;;36.65;nan;101445.50;4990904;28;20673;-68
2022/07/06 07:30:01;;;;;;;2.60;2.40;;;35.80;45.30;;;36.89;nan;101440.47;4990261;28;20630;-67
2022/07/06 07:32:28;;;;;;;3.77;2.50;;;36.10;44.30;;;37.39;nan;101448.03;4992734;28;20633;-68
2022/07/06 07:34:55;;;;;;;3.63;3.33;;;36.80;43.70;;;37.00;nan;101445.69;4991274;28;20647;-68
2022/07/06 07:37:22;;;;;;;2.33;2.23;;;36.50;43.10;;;37.51;nan;101454.88;4973490;28;20638;-69
2022/07/06 07:39:49;;;;;;;3.33;2.47;;;36.80;43.10;;;37.45;nan;101442.34;4991367;28;20622;-69
2022/07/06 07:42:16;;;;;;;2.10;2.00;;;36.80;42.40;;;37.55;nan;101455.16;4990249;28;20634;-68
2022/07/06 07:44:44;;;;;;;3.00;2.63;;;36.80;42.60;;;35.99;nan;101454.22;4989011;28;20674;-68
2022/07/06 07:47:11;;;;;;;2.40;2.20;;;35.70;42.30;;;36.17;nan;101457.34;4990996;28;20662;-68
2022/07/06 07:49:39;;;;;;;2.43;2.23;;;35.70;42.90;;;36.91;nan;101435.59;4975335;28;20632;-69
2022/07/06 07:52:06;;;;;;;2.87;2.67;;;36.10;42.50;;;36.22;nan;101446.53;4952302;28;20620;-69
2022/07/06 07:54:33;;;;;;;2.30;2.20;;;36.00;41.60;;;35.42;nan;101451.09;4959459;28;20666;-68
2022/07/06 07:57:00;;;;;;;2.70;2.50;;;35.00;42.40;;;36.62;nan;101446.00;4970892;28;20615;-69
2022/07/06 07:59:27;;;;;;;2.37;2.27;;;36.00;42.00;;;37.34;nan;101454.28;4975944;28;20634;-68
2022/07/06 08:01:54;;;;;;;3.13;1.80;;;36.70;41.50;;;38.45;nan;101443.53;4978328;28;20651;-68
2022/07/06 08:04:22;;;;;;;2.73;2.53;;;37.80;40.60;;;36.71;nan;101440.91;4963668;28;21237;-68
2022/07/06 08:06:49;;;;;;;2.30;2.20;;;37.00;40.10;;;37.77;nan;101442.94;4970551;28;20667;-68
2022/07/06 08:09:17;;;;;;;2.43;2.33;;;37.10;40.40;;;38.25;nan;101440.84;4970364;28;20622;-70
2022/07/06 08:11:44;;;;;;;2.07;1.97;;;37.80;39.70;;;38.38;nan;101437.53;4971270;28;20635;-69
2022/07/06 08:14:14;;;;;;;2.37;2.20;;;37.80;39.60;;;38.65;nan;101438.84;4971138;28;20647;-67
2022/07/06 08:16:41;;;;;;;2.03;2.03;;;38.10;39.50;;;38.89;nan;101436.31;4968159;28;21058;-67
2022/07/06 08:19:09;;;;;;;2.17;2.07;;;38.20;38.90;;;37.69;nan;101438.03;4970818;28;21182;-67
2022/07/06 08:21:37;;;;;;;2.50;2.20;;;37.40;39.10;;;37.23;nan;101428.09;4950765;28;20632;-67
2022/07/06 08:24:04;;;;;;;4.07;2.33;;;37.00;39.10;;;36.14;nan;101435.31;4960865;28;20739;-67
2022/07/06 08:26:31;;;;;;;2.83;2.17;;;35.90;39.70;;;37.35;nan;101436.88;4990063;28;21197;-65
2022/07/06 08:28:59;;;;;;;3.17;2.97;;;36.60;40.10;;;38.73;nan;101446.50;4989677;28;20638;-67
2022/07/06 08:31:29;;;;;;;2.67;1.87;;;38.00;38.70;;;39.63;nan;101449.94;4988178;28;20638;-67
2022/07/06 08:34:16;;;;;;;2.00;1.90;;;39.00;37.80;;;40.73;nan;101448.16;4950086;29;20631;-67
2022/07/06 08:36:43;;;;;;;2.10;1.90;;;40.10;37.30;;;41.25;nan;101451.94;4965935;28;20996;-67
2022/07/06 08:39:10;;;;;;;2.30;2.20;;;40.80;36.70;;;41.99;nan;101453.84;4990196;28;20645;-67
2022/07/06 08:41:41;;;;;;;4.40;2.10;;;41.50;36.20;;;41.95;nan;101452.81;4972806;28;21005;-66
2022/07/06 08:44:09;;;;;;;2.20;2.10;;;41.70;35.80;;;41.99;nan;101462.88;4989447;28;20662;-67
2022/07/06 08:46:39;;;;;;;1.93;1.80;;;41.60;35.80;;;42.72;nan;101456.66;4989010;28;20666;-67
2022/07/06 08:49:07;;;;;;;2.13;2.00;;;42.10;35.40;;;41.88;nan;101453.19;4983522;28;20670;-67
2022/07/06 08:51:38;;;;;;;1.70;1.60;;;41.40;35.30;;;40.33;nan;101453.19;4987623;28;20645;-67
2022/07/06 08:54:05;;;;;;;3.27;2.00;;;39.80;36.20;;;40.61;nan;101455.97;4989793;28;20646;-68
2022/07/06 08:56:33;;;;;;;2.40;1.90;;;40.10;36.20;;;40.61;nan;101457.88;4983406;28;20988;-67
2022/07/06 08:59:00;;;;;;;2.20;2.00;;;40.00;35.90;;;38.78;nan;101454.63;4970640;28;20634;-67
2022/07/06 09:01:27;;;;;;;1.97;1.83;;;38.40;36.60;;;37.82;nan;101450.34;4976522;28;20635;-67
2022/07/06 09:03:56;;;;;;;1.80;1.80;;;37.20;37.80;;;39.07;nan;101448.53;4988945;28;20662;-68
2022/07/06 09:06:27;;;;;;;2.03;1.90;;;38.20;37.40;;;39.16;nan;101450.44;4951716;28;20756;-68
2022/07/06 09:08:55;;;;;;;1.80;1.77;;;38.50;37.00;;;39.33;nan;101452.81;4950819;28;20620;-68
2022/07/06 09:11:25;;;;;;;1.70;1.60;;;38.70;36.80;;;38.93;nan;101455.69;4968510;28;20666;-67
2022/07/06 09:13:52;;;;;;;2.40;1.90;;;38.30;36.80;;;38.86;nan;101450.53;4974860;28;20655;-68
2022/07/06 09:16:28;;;;;;;5.53;1.97;;;38.10;37.00;;;39.29;nan;101449.81;4989553;28;20639;-69
2022/07/06 09:19:07;;;;;;;5.37;2.00;;;38.60;36.90;;;40.23;nan;101462.34;4982880;28;20636;-67
2022/07/06 09:21:38;;;;;;;1.90;1.80;;;39.50;36.50;;;41.96;nan;101454.44;4965567;28;20624;-67
2022/07/06 09:24:09;;;;;;;9.17;2.70;;;41.20;35.70;;;43.35;nan;101454.81;4962069;28;20670;-67
2022/07/06 09:26:37;;;;;;;2.13;2.03;;;42.70;34.60;;;43.71;nan;101458.38;4991078;28;20997;-67
2022/07/06 09:29:05;;;;;;;2.00;1.90;;;43.20;34.20;;;;;;4984946;28;20643;-69
2022/07/06 09:31:32;;;;;;;2.40;2.20;;;43.50;33.50;;;;;;4970113;28;20770;-70
2022/07/06 09:34:02;;;;;;;2.10;2.00;;;43.60;33.60;;;;;;4965938;28;20761;-67
2022/07/06 09:36:49;;;;;;;2.23;2.13;;;43.90;33.30;;;;;;4960921;28;21342;-67
2022/07/06 09:39:20;;;;;;;2.37;2.17;;;43.80;33.20;;;;;;4958581;28;20643;-67
2022/07/06 09:41:48;;;;;;;2.17;2.07;;;42.20;33.50;;;;;;4972817;28;20714;-68
2022/07/06 09:44:22;;;;;;;2.33;2.10;;;41.40;34.40;;;;;;4981520;28;20662;-67
2022/07/06 09:46:49;;;;;;;2.13;2.00;;;42.80;33.80;;;;;;4973461;28;20647;-68
2022/07/06 09:49:20;;;;;;;2.83;2.30;;;43.10;33.50;;;;;;4974400;28;20726;-68
2022/07/06 09:51:49;;;;;;;2.03;2.00;;;43.20;33.20;;;;;;4974060;28;20641;-68
2022/07/06 09:54:17;;;;;;;1.80;1.80;;;44.20;33.00;;;;;;4972171;28;21107;-67
2022/07/06 09:56:50;;;;;;;2.33;2.23;;;45.30;32.50;;;;;;4970760;28;20647;-68
2022/07/06 09:59:22;;;;;;;2.47;2.30;;;45.10;32.40;;;;;;4973669;28;20673;-68
2022/07/06 10:01:59;;;;;;;1.70;1.60;;;45.70;32.30;;;;;;4972722;28;20639;-67
2022/07/06 10:04:27;;;;;;;1.97;1.97;;;45.60;32.00;;;;;;4973189;28;20794;-68
2022/07/06 10:06:55;;;;;;;4.97;2.57;;;44.40;32.30;;;;;;4975975;28;21205;-69
2022/07/06 10:09:25;;;;;;;3.17;2.27;;;44.30;32.50;;;;;;4975543;28;20697;-67
2022/07/06 10:11:56;;;;;;;2.10;2.00;;;43.70;32.50;;;;;;4976731;28;20697;-68
2022/07/06 10:14:30;;;;;;;2.00;1.90;;;42.90;32.90;;;;;;4986167;28;20694;-67
2022/07/06 10:16:58;;;;;;;2.50;2.30;;;41.80;33.10;;;;;;4971415;28;20635;-67
2022/07/06 10:19:26;;;;;;;2.10;2.00;;;40.20;34.00;;;;;;4975489;28;21002;-68
2022/07/06 10:21:53;;;;;;;2.40;2.20;;;37.60;35.30;;;;;;4993328;28;20765;-69
2022/07/06 10:24:21;;;;;;;1.60;1.50;;;36.00;36.40;;;;;;4989911;28;20649;-67
2022/07/06 10:26:48;;;;;;;1.60;1.50;;;35.40;37.30;;;;;;4972759;28;21442;-67
2022/07/06 10:29:15;;;;;;;2.37;2.00;;;35.20;37.40;;;;;;4972887;28;20607;-69
2022/07/06 10:31:48;;;;;;;2.50;1.57;;;33.80;37.60;;;;;;4965864;28;20707;-67
2022/07/06 10:34:19;;;;;;;2.23;2.10;;;31.70;39.10;;;;;;4971841;28;20775;-67
2022/07/06 10:36:51;;;;;;;2.07;1.70;;;30.40;40.10;;;;;;4973161;28;21224;-67
2022/07/06 10:42:43;;;;;;;1.60;1.50;;;28.90;41.90;;;;;;4991634;28;20724;-69
2022/07/06 10:45:12;;;;;;;1.17;1.07;;;28.30;42.60;;;;;;4990954;28;20648;-67
2022/07/06 10:47:41;;;;;;;1.97;1.80;;;28.30;43.30;;;;;;4992494;28;20658;-67
2022/07/06 10:50:08;;;;;;;1.80;1.70;;;28.20;43.00;;;;;;4990335;28;20734;-68
2022/07/06 10:52:53;;;;;;;1.77;1.67;;;27.90;42.80;;;;;;4992253;28;20614;-68
2022/07/06 10:55:29;;;;;;;1.77;1.67;;;27.80;43.10;;;;;;4982289;28;21333;-69